Flight Track Log - Related Links

Times and Time Zones

All times are in EDT time to prevent confusion due to time zone crossing. See the SWA876 flight status page for this flight to view local times or setup timezone preferences in your user account.

Time Position Orientation Groundspeed Altitude Reporting Facility
EDT Latitude Longitude Course Direction KTS MPH feet Rate Location/Type
Sat 07:42:02 PM 36.0742 -115.1794 273° West 177 204 3,500  Level Los Angeles Center
Sat 07:42:26 PM 36.0750 -115.2031 273° West 183 211 4,100 2,400 Climbing Los Angeles Center
Sat 07:43:27 PM 36.0872 -115.2789 281° West 233 268 6,900 2,747 Climbing Los Angeles Center
Sat 07:43:49 PM 36.1122 -115.2886 343° North 232 267 7,900 2,656 Climbing Los Angeles Center
Sat 07:44:28 PM 36.1536 -115.2864 North 255 293 9,600 2,710 Climbing Los Angeles Center
Sat 07:44:51 PM 36.1711 -115.2553 55° Northeast 255 293 10,700 1,900 Climbing Los Angeles Center
Sat 07:45:28 PM 36.1894 -115.2028 67° East 299 344 11,500 1,082 Climbing Los Angeles Center
Sat 07:45:52 PM 36.1972 -115.1592 78° East 292 336 11,800 1,953 Climbing Los Angeles Center
Sat 07:46:54 PM 36.1989 -115.0319 89° East 359 413 14,300 2,226 Climbing Los Angeles Center
Sat 07:47:56 PM 36.1994 -114.8997 90° East 378 435 16,400 2,081 Climbing Los Angeles Center
Sat 07:48:58 PM 36.2003 -114.7594 90° East 399 459 18,600 2,419 Climbing Los Angeles Center
Sat 07:50:00 PM 36.2000 -114.5819 90° East 424 488 21,400 2,195 Climbing Los Angeles Center
Sat 07:51:01 PM 36.1964 -114.4314 92° East 434 499 23,100 1,610 Climbing Los Angeles Center
Sat 07:52:03 PM 36.1956 -114.2756 90° East 446 513 24,700 1,452 Climbing Los Angeles Center
Sat 07:53:05 PM 36.2075 -114.1161 85° East 459 528 26,100 1,258 Climbing Los Angeles Center
Sat 07:54:07 PM 36.2278 -113.9528 81° East 478 550 27,300 1,210 Climbing Los Angeles Center
Sat 07:55:09 PM 36.2481 -113.7856 81° East 488 562 28,600 1,161 Climbing Los Angeles Center
Sat 07:56:11 PM 36.2675 -113.6147 82° East 498 573 29,700 1,065 Climbing Los Angeles Center
Sat 07:57:13 PM 36.2914 -113.4044 82° East 512 589 30,800 1,113 Climbing Los Angeles Center
Sat 07:58:15 PM 36.3131 -113.2322 81° East 519 597 32,000 1,258 Climbing Los Angeles Center
Sat 07:59:17 PM 36.3692 -113.0700 67° East 515 593 33,400 1,258 Climbing Los Angeles Center
Sat 08:00:19 PM 36.4269 -112.9119 66° East 507 583 34,600 1,113 Climbing Los Angeles Center
Sat 08:01:21 PM 36.4842 -112.7550 66° East 503 579 35,700 1,016 Climbing Los Angeles Center
Sat 08:02:23 PM 36.5542 -112.5661 65° Northeast 504 580 36,700 629 Climbing Los Angeles Center
Sat 08:03:25 PM 36.6119 -112.4106 65° Northeast 500 575 37,000 145 Climbing Los Angeles Center
Sat 08:04:27 PM 36.6683 -112.2536 66° East 500 575 37,000  Level Los Angeles Center
Sat 08:05:29 PM 36.7258 -112.0975 65° Northeast 498 573 37,000  Level Los Angeles Center
Sat 08:06:12 PM 36.7711 -111.9733 65° Northeast 500 575 37,000  Level Denver Center
Sat 08:07:14 PM 36.8267 -111.8167 66° East 499 574 37,000  Level Denver Center
Sat 08:08:15 PM 36.8836 -111.6594 66° East 499 574 37,000  Level Denver Center
Sat 08:09:17 PM 36.9400 -111.5006 66° East 502 578 37,000  Level Denver Center
Sat 08:10:18 PM 36.9808 -111.3314 73° East 509 586 37,000  Level Denver Center
Sat 08:11:20 PM 37.0172 -111.1650 75° East 504 580 37,000  Level Denver Center
Sat 08:12:21 PM 37.0628 -110.9611 74° East 509 586 37,000  Level Denver Center
Sat 08:13:23 PM 37.1019 -110.7917 74° East 509 586 37,000  Level Denver Center
Sat 08:14:25 PM 37.1406 -110.6219 74° East 510 587 37,000  Level Denver Center
Sat 08:15:26 PM 37.1786 -110.4506 74° East 511 588 37,000  Level Denver Center
Sat 08:16:28 PM 37.2169 -110.2794 74° East 512 589 37,000  Level Denver Center
Sat 08:17:29 PM 37.2561 -110.0994 75° East 509 586 37,000  Level Denver Center
Sat 08:18:31 PM 37.2994 -109.9075 74° East 509 586 37,000  Level Denver Center
Sat 08:19:32 PM 37.3342 -109.7433 75° East 508 585 37,000  Level Denver Center
Sat 08:20:34 PM 37.3703 -109.5806 74° East 506 582 37,000  Level Denver Center
Sat 08:21:35 PM 37.4117 -109.3872 75° East 510 587 37,000  Level Denver Center
Sat 08:22:37 PM 37.4472 -109.2197 75° East 515 593 37,000  Level Denver Center
Sat 08:23:38 PM 37.4889 -109.0250 75° East 515 593 37,000  Level Denver Center
Sat 08:24:40 PM 37.5233 -108.8589 75° East 513 590 37,000  Level Denver Center
Sat 08:25:41 PM 37.5581 -108.6883 76° East 520 598 37,000  Level Denver Center
Sat 08:26:43 PM 37.5989 -108.4933 75° East 516 594 37,000  Level Denver Center
Sat 08:27:44 PM 37.6331 -108.3283 75° East 509 586 37,000  Level Denver Center
Sat 08:28:45 PM 37.6664 -108.1611 76° East 510 587 37,000  Level Denver Center
Sat 08:29:47 PM 37.7053 -107.9672 76° East 508 585 37,000  Level Denver Center
Sat 08:30:48 PM 37.7383 -107.8044 76° East 504 580 37,000  Level Denver Center
Sat 08:31:49 PM 37.7758 -107.6103 76° East 508 585 37,000  Level Denver Center
Sat 08:32:51 PM 37.8094 -107.4453 75° East 507 583 37,000  Level Denver Center
Sat 08:33:52 PM 37.8414 -107.2775 76° East 510 587 37,000  Level Denver Center
Sat 08:34:54 PM 37.8778 -107.0889 76° East 510 587 37,000  Level Denver Center
Sat 08:35:55 PM 37.9092 -106.9222 77° East 510 587 37,000  Level Denver Center
Sat 08:36:56 PM 37.9464 -106.7267 76° East 510 587 37,000  Level Denver Center
Sat 08:37:58 PM 37.9781 -106.5594 76° East 512 589 37,000  Level Denver Center
Sat 08:38:59 PM 38.0106 -106.3786 77° East 510 587 37,000  Level Denver Center
Sat 08:40:00 PM 38.0472 -106.1817 77° East 512 589 37,000  Level Denver Center
Sat 08:41:02 PM 38.0786 -106.0128 77° East 513 590 37,000  Level Denver Center
Sat 08:42:03 PM 38.1089 -105.8447 77° East 512 589 37,000  Level Denver Center
Sat 08:43:04 PM 38.1442 -105.6486 77° East 509 586 37,000  Level Denver Center
Sat 08:44:18 PM 38.1733 -105.4808 77° East 508 585 37,000  Level Denver Center
Sat 08:45:19 PM 38.2131 -105.2567 77° East 509 586 37,000  Level Denver Center
Sat 08:46:20 PM 38.2436 -105.0878 77° East 510 587 37,000  Level Denver Center
Sat 08:47:22 PM 38.2742 -104.9203 77° East 508 585 37,000  Level Denver Center
Sat 08:48:23 PM 38.3119 -104.7264 76° East 504 580 37,000  Level Denver Center
Sat 08:49:24 PM 38.3425 -104.5600 77° East 506 582 37,000  Level Denver Center
Sat 08:50:26 PM 38.3761 -104.3839 76° East 508 585 37,000  Level Denver Center
Sat 08:51:27 PM 38.4075 -104.2100 77° East 503 579 37,000  Level Denver Center
Sat 08:52:28 PM 38.4406 -104.0325 77° East 497 572 37,000  Level Denver Center
Sat 08:53:30 PM 38.4753 -103.8375 77° East 502 578 37,000  Level Denver Center
Sat 08:54:31 PM 38.5047 -103.6708 77° East 501 577 37,000  Level Denver Center
Sat 08:55:32 PM 38.5353 -103.5056 77° East 499 574 37,000  Level Denver Center
Sat 08:56:33 PM 38.5658 -103.3311 77° East 496 571 37,000  Level Denver Center
Sat 08:57:35 PM 38.5997 -103.1417 77° East 496 571 37,000  Level Denver Center
Sat 08:58:36 PM 38.6292 -102.9681 78° East 499 574 37,000  Level Denver Center
Sat 08:59:37 PM 38.6581 -102.7950 78° East 495 570 37,000  Level Denver Center
Sat 09:00:39 PM 38.6886 -102.6167 78° East 495 570 37,000  Level Denver Center
Sat 09:01:40 PM 38.7164 -102.4539 78° East 491 565 37,000  Level Denver Center
Sat 09:02:42 PM 38.7478 -102.2656 78° East 488 562 37,000  Level Denver Center
Sat 09:03:43 PM 38.7742 -102.1025 78° East 489 563 37,000  Level Denver Center
Sat 09:04:44 PM 38.8061 -101.9103 78° East 491 565 37,000  Level Denver Center
Sat 09:05:46 PM 38.8328 -101.7475 78° East 486 559 37,000  Level Denver Center
Sat 09:06:47 PM 38.8592 -101.5836 78° East 487 560 37,000  Level Denver Center
Sat 09:07:49 PM 38.8894 -101.3947 78° East 484 557 37,000  Level Denver Center
Sat 09:08:50 PM 38.9147 -101.2311 79° East 486 559 37,000  Level Denver Center
Sat 09:09:51 PM 38.9442 -101.0392 79° East 492 566 37,000  Level Denver Center
Sat 09:10:53 PM 38.9700 -100.8767 78° East 486 559 37,000  Level Denver Center
Sat 09:11:54 PM 38.9947 -100.7108 79° East 492 566 37,000  Level Denver Center
Sat 09:12:55 PM 39.0256 -100.5133 79° East 498 573 37,000  Level Denver Center
Sat 09:13:57 PM 39.0506 -100.3472 79° East 497 572 37,000  Level Denver Center
Sat 09:14:58 PM 39.0744 -100.1806 79° East 496 571 37,000  Level Denver Center
Sat 09:15:59 PM 39.1036 -99.9847 79° East 497 572 37,000  Level Denver Center
Sat 09:17:01 PM 39.1267 -99.8181 80° East 496 571 37,000  Level Denver Center
Sat 09:18:02 PM 39.1550 -99.6239 79° East 494 568 37,000  Level Denver Center
Sat 09:19:04 PM 39.1783 -99.4569 80° East 495 570 37,000  Level Denver Center
Sat 09:20:05 PM 39.2008 -99.2939 80° East 492 566 37,000  Level Denver Center
Sat 09:21:06 PM 39.2283 -99.0997 80° East 495 570 37,000  Level Denver Center
Sat 09:22:08 PM 39.2503 -98.9381 80° East 492 566 37,000  Level Denver Center
Sat 09:23:09 PM 39.2733 -98.7647 80° East 491 565 37,000  Level Denver Center
Sat 09:24:10 PM 39.2967 -98.5914 80° East 492 566 37,000  Level Denver Center
Sat 09:25:11 PM 39.3194 -98.4181 80° East 491 565 37,000  Level Denver Center
Sat 09:25:45 PM 39.3342 -98.3097 80° East 495 570 37,000  Level Kansas City Center
Sat 09:26:47 PM 39.3581 -98.1147 81° East 490 564 37,000  Level Kansas City Center
Sat 09:27:48 PM 39.3789 -97.9464 81° East 494 568 37,000  Level Kansas City Center
Sat 09:28:49 PM 39.4008 -97.7844 80° East 502 578 37,000  Level Kansas City Center
Sat 09:29:49 PM 39.4272 -97.5733 81° East 497 572 37,000  Level Kansas City Center
Sat 09:30:51 PM 39.4458 -97.4111 81° East 494 568 37,000  Level Kansas City Center
Sat 09:31:49 PM 39.4678 -97.2417 80° East 497 572 37,000  Level Kansas City Center
Sat 09:32:52 PM 39.4914 -97.0428 81° East 499 574 37,000  Level Kansas City Center
Sat 09:33:53 PM 39.5106 -96.8733 82° East 497 572 37,000  Level Kansas City Center
Sat 09:34:53 PM 39.5328 -96.6883 81° East 502 578 37,000  Level Kansas City Center
Sat 09:35:56 PM 39.5528 -96.5097 82° East 502 578 37,000  Level Kansas City Center
Sat 09:36:54 PM 39.5722 -96.3331 82° East 504 580 37,000  Level Kansas City Center
Sat 09:37:55 PM 39.5942 -96.1314 82° East 504 580 37,000  Level Kansas City Center
Sat 09:38:58 PM 39.6139 -95.9547 82° East 508 585 37,000  Level Kansas City Center
Sat 09:39:59 PM 39.6325 -95.7800 82° East 509 586 37,000  Level Kansas City Center
Sat 09:41:00 PM 39.6517 -95.6056 82° East 507 583 37,000  Level Kansas City Center
Sat 09:42:02 PM 39.6714 -95.4039 83° East 503 579 37,000  Level Kansas City Center
Sat 09:43:02 PM 39.6900 -95.2308 82° East 502 578 37,000  Level Kansas City Center
Sat 09:44:03 PM 39.7069 -95.0583 83° East 501 577 37,000  Level Kansas City Center
Sat 09:45:03 PM 39.7275 -94.8558 82° East 503 579 37,000  Level Kansas City Center
Sat 09:46:03 PM 39.7447 -94.6819 83° East 505 581 37,000  Level Kansas City Center
Sat 09:47:06 PM 39.7617 -94.5078 83° East 506 582 37,000  Level Kansas City Center
Sat 09:48:07 PM 39.7811 -94.3042 83° East 506 582 37,000  Level Kansas City Center
Sat 09:49:08 PM 39.7981 -94.1294 83° East 507 583 37,000  Level Kansas City Center
Sat 09:50:06 PM 39.8144 -93.9333 84° East 517 595 37,000  Level Kansas City Center
Sat 09:51:09 PM 39.8294 -93.7494 84° East 516 594 37,000  Level Kansas City Center
Sat 09:52:10 PM 39.8500 -93.5672 82° East 515 593 37,000  Level Kansas City Center
Sat 09:53:08 PM 39.8644 -93.3839 84° East 514 592 37,000  Level Kansas City Center
Sat 09:54:10 PM 39.8800 -93.2022 84° East 514 592 37,000  Level Kansas City Center
Sat 09:55:11 PM 39.8953 -93.0206 84° East 512 589 37,000  Level Kansas City Center
Sat 09:56:13 PM 39.9114 -92.8397 83° East 512 589 37,000  Level Kansas City Center
Sat 09:57:14 PM 39.9253 -92.6572 84° East 514 592 37,000  Level Kansas City Center
Sat 09:58:12 PM 39.9422 -92.4408 84° East 513 590 37,000  Level Kansas City Center
Sat 09:59:16 PM 39.9561 -92.2619 84° East 509 586 37,000  Level Kansas City Center
Sat 10:00:14 PM 39.9697 -92.0825 84° East 506 582 37,000  Level Kansas City Center
Sat 10:01:17 PM 39.9825 -91.9022 85° East 506 582 37,000  Level Kansas City Center
Sat 10:03:28 PM 39.9869 -91.5050 89° East 505 581 37,000  Level Chicago Center
Sat 10:04:18 PM 39.9825 -91.3611 92° East 505 581 37,000  Level Kansas City Center
Sat 10:05:20 PM 39.9756 -91.1808 93° East 502 578 37,000  Level Kansas City Center
Sat 10:06:21 PM 39.9719 -91.0008 91° East 502 578 37,000  Level Kansas City Center
Sat 10:07:20 PM 39.9792 -90.7975 87° East 508 585 37,000  Level Kansas City Center
Sat 10:08:22 PM 39.9950 -90.6144 84° East 510 587 37,000  Level Kansas City Center
Sat 10:09:23 PM 40.0086 -90.4308 84° East 511 588 37,000  Level Kansas City Center
Sat 10:10:24 PM 40.0206 -90.2469 85° East 511 588 37,000  Level Kansas City Center
Sat 10:11:25 PM 40.0333 -90.0639 85° East 511 588 37,000  Level Kansas City Center
Sat 10:12:27 PM 40.0444 -89.8819 85° East 509 586 37,000  Level Kansas City Center
Sat 10:13:26 PM 40.0586 -89.6642 85° East 506 582 37,000  Level Kansas City Center
Sat 10:14:26 PM 40.0789 -89.4853 82° East 504 580 37,000  Level Kansas City Center
Sat 10:15:27 PM 40.1047 -89.3047 79° East 506 582 37,000  Level Kansas City Center
Sat 10:16:37 PM 40.1353 -89.0925 79° East 505 581 37,000  Level Chicago Center
Sat 10:17:38 PM 40.1603 -88.9158 79° East 501 577 37,000  Level Chicago Center
Sat 10:18:39 PM 40.1867 -88.7386 79° East 499 574 37,000  Level Chicago Center
Sat 10:19:39 PM 40.1978 -88.5581 85° East 500 575 37,000  Level Chicago Center
Sat 10:20:40 PM 40.2050 -88.3917 87° East 498 573 37,000  Level Chicago Center
Sat 10:21:40 PM 40.2133 -88.1775 87° East 497 572 37,000  Level Chicago Center
Sat 10:22:41 PM 40.2194 -87.9969 87° East 502 578 37,000  Level Chicago Center
Sat 10:23:42 PM 40.2258 -87.8175 87° East 501 577 37,000  Level Chicago Center
Sat 10:24:16 PM 40.2258 -87.7397 90° East 501 577 37,000 -319 Level Indianapolis Center
Sat 10:25:16 PM 40.2319 -87.5567 87° East 500 575 36,500 -759 Descending Indianapolis Center
Sat 10:25:43 PM 40.2381 -87.4578 85° East 500 575 35,900 -1,034 Descending Chicago Center
Sat 10:26:43 PM 40.2419 -87.2825 88° East 500 575 35,000 -446 Descending Chicago Center
Sat 10:27:44 PM 40.2461 -87.0950 88° East 507 583 35,000  Level Chicago Center
Sat 10:28:45 PM 40.2514 -86.9081 88° East 509 586 35,000  Level Chicago Center
Sat 10:29:45 PM 40.2561 -86.7197 88° East 511 588 35,000  Level Chicago Center
Sat 10:30:46 PM 40.2600 -86.5339 88° East 505 581 35,000  Level Chicago Center
Sat 10:31:46 PM 40.2644 -86.3497 88° East 501 577 35,000  Level Chicago Center
Sat 10:32:47 PM 40.2683 -86.1639 88° East 502 578 35,000  Level Chicago Center
Sat 10:33:48 PM 40.2714 -85.9792 89° East 501 577 35,000  Level Chicago Center
Sat 10:34:48 PM 40.2742 -85.7936 89° East 504 580 35,000  Level Chicago Center
Sat 10:35:49 PM 40.2769 -85.6081 89° East 506 582 35,000  Level Chicago Center
Sat 10:36:49 PM 40.2753 -85.4253 91° East 505 581 35,000  Level Chicago Center
Sat 10:37:23 PM 40.2636 -85.3367 100° East 493 567 35,000 -1,213 Level Indianapolis Center
Sat 10:38:23 PM 40.2464 -85.1567 97° East 493 567 33,100 -2,182 Descending Indianapolis Center
Sat 10:39:24 PM 40.2292 -84.9781 97° East 490 564 30,600 -2,529 Descending Indianapolis Center
Sat 10:40:24 PM 40.2106 -84.7958 98° East 480 552 28,000 -2,380 Descending Indianapolis Center
Sat 10:41:25 PM 40.1922 -84.6269 98° East 466 536 25,800 -2,331 Descending Indianapolis Center
Sat 10:42:25 PM 40.1750 -84.4625 98° East 455 524 23,300 -2,430 Descending Indianapolis Center
Sat 10:43:26 PM 40.1581 -84.3000 98° East 447 514 20,900 -2,281 Descending Indianapolis Center
Sat 10:44:26 PM 40.1419 -84.1408 97° East 437 503 18,700 -2,196 Descending Indianapolis Center
Sat 10:45:18 PM 40.1267 -84.0072 98° East 425 489 16,800 -1,971 Descending Indianapolis Center
Sat 10:45:36 PM 40.1197 -83.9600 101° East 425 489 16,400 -1,800 Descending Indianapolis Center
Sat 10:46:28 PM 40.1067 -83.8369 98° East 412 474 14,700 -1,982 Descending Indianapolis Center
Sat 10:47:28 PM 40.0906 -83.6925 98° East 398 458 12,700 -2,033 Descending Indianapolis Center
Sat 10:48:29 PM 40.0744 -83.5769 100° East 385 443 10,600 -1,445 Descending Indianapolis Center
Sat 10:49:45 PM 40.0533 -83.4117 99° East 309 356 9,400 -1,636 Descending Indianapolis Center
Sat 10:50:30 PM 40.0439 -83.3392 100° East 309 356 7,300 -3,000 Descending Indianapolis Center
Sat 10:50:45 PM 40.0367 -83.2953 102° East 301 346 6,400 -1,900 Descending Indianapolis Center
Sat 10:51:30 PM 40.0300 -83.2339 98° East 299 344 5,400 -1,377 Descending Indianapolis Center
Sat 10:51:46 PM 40.0244 -83.2014 103° East 242 278 5,000 -1,082 Descending Indianapolis Center
Sat 10:52:31 PM 40.0181 -83.1481 99° East 258 297 4,300 -1,100 Descending Indianapolis Center
Sat 10:52:46 PM 40.0133 -83.1183 102° East 232 267 3,900 -1,000 Descending Indianapolis Center
Sat 10:53:31 PM 40.0081 -83.0706 98° East 231 266 3,300 -984 Descending Indianapolis Center
Sat 10:53:47 PM 40.0058 -83.0467 97° East 185 213 2,900 -1,082 Descending Indianapolis Center
Sat 10:54:32 PM 40.0011 -83.0050 98° East 200 230 2,200 -885 Descending Indianapolis Center
Sat 10:54:48 PM 39.9994 -82.9861 97° East 163 188 2,000 -787 Descending Indianapolis Center
Sat 10:55:33 PM 39.9975 -82.9533 94° East 164 189 1,400 -800 Descending Indianapolis Center
Sat 10:55:48 PM 39.9967 -82.9367 94° East 135 155 1,200 -500 Descending Indianapolis Center
Sat 10:56:33 PM 39.9947 -82.9044 94° East 151 174 900 -400 Descending Indianapolis Center
Sat 10:58:00 PM 39.9980 -82.8920 108° East  Level Estimated

Login

Don't have an account? Register now (free) for customized features, flight alerts, and more!